Three Stars — 3ELI2 — position and weather

sailwx.info

Track history (hours):
 
Tides and Currents Weather Stations Pressure Air Temp Water Temp Dewpoint Dewpoint Depression Visibility Wind Speed Wind Dir Waves Ship Positions

Three Stars

Last reported at 2016-May-20 01:29 UTC. Time now 2016-May-25 16:58 UTC.
Position N 48°31' W 126°44'.

Length 225 m; draft 12.4 m.

Type: Cargo ship. MMSI: 372950000.

Date/timePositionNaut miles runAvg speedWind from/ knotsBaromVisibWave heightAir tempDewpointWater temp
2016-May-20 01:29N 48°31' W 126°44'9 9.3
2016-May-20 00:29N 48°31' W 126°30'9 9.7
2016-May-19 23:33N 48°31' W 126°17'9 9.4
2016-May-19 22:33N 48°31' W 126°03'9 8.9
2016-May-19 21:33N 48°31' W 125°49'10 9.8
2016-May-19 20:33N 48°31' W 125°34'10 9.9
2016-May-19 19:33N 48°31' W 125°19'6811.2
2016-May-19 13:30N 48°16' W 123°40'1010.7
2016-May-19 12:33N 48°21' W 123°26'10 9.5
2016-May-19 11:33N 48°24' W 123°13'1212.4
2016-May-19 10:33N 48°37' W 123°14'10 9.7
2016-May-19 09:33N 48°45' W 123°06'8 7.7
2016-May-19 08:33N 48°53' W 123°07'1212.2
2016-May-19 07:33N 49°01' W 123°21'1110.9
2016-May-19 06:33N 49°12' W 123°22'9 9.3
2016-May-19 05:33N 49°19' W 123°13'5 5.3
2016-May-19 04:31N 49°18' W 123°05'0 0.0
2016-May-19 03:31N 49°18' W 123°05'0 0.1
2016-May-19 02:31N 49°18' W 123°04'0 0.1
2016-May-19 01:31N 49°18' W 123°04'0 0.2
2016-May-19 00:31N 49°18' W 123°04'0 0.1
2016-May-18 23:31N 49°18' W 123°04'0 0.0
2016-May-18 22:31N 49°18' W 123°04'0 0.0
2016-May-18 21:31N 49°18' W 123°04'0 0.1
2016-May-18 20:31N 49°18' W 123°04'0 0.2
2016-May-18 19:31N 49°18' W 123°04'0 0.1
2016-May-18 18:31N 49°18' W 123°05'0 0.0
2016-May-18 17:31N 49°18' W 123°05'0 0.0
2016-May-18 16:31N 49°18' W 123°05'0 0.0
2016-May-18 15:31N 49°18' W 123°05'0 0.0
2016-May-18 14:31N 49°18' W 123°05'0 0.0
2016-May-18 13:31N 49°18' W 123°05'0 0.1
2016-May-18 12:31N 49°18' W 123°04'0 0.2
2016-May-18 11:31N 49°18' W 123°04'0 0.0
2016-May-18 10:31N 49°18' W 123°04'0 0.0
2016-May-18 09:31N 49°18' W 123°04'0 0.0
2016-May-18 08:31N 49°18' W 123°04'0 0.1
2016-May-18 07:31N 49°18' W 123°04'0 0.2
2016-May-18 06:31N 49°18' W 123°05'0 0.0
2016-May-18 05:31N 49°18' W 123°05'0 0.0
2016-May-18 04:31N 49°18' W 123°05'0 0.0
2016-May-18 03:31N 49°18' W 123°05'0 0.0
2016-May-18 02:31N 49°18' W 123°05'0 0.1
2016-May-18 01:31N 49°18' W 123°04'0 0.1
2016-May-18 00:31N 49°18' W 123°04'0 0.3
2016-May-17 23:31N 49°18' W 123°04'0 0.0
2016-May-17 22:31N 49°18' W 123°04'0 0.0
2016-May-17 21:31N 49°18' W 123°04'0 0.0
2016-May-17 20:31N 49°18' W 123°04'0 0.2
2016-May-17 19:31N 49°18' W 123°04'0 0.1
2016-May-17 18:31N 49°18' W 123°05'0 0.0
2016-May-17 17:31N 49°18' W 123°05'0 0.0
2016-May-17 16:31N 49°18' W 123°05'0 0.0
2016-May-17 15:31N 49°18' W 123°05'0 0.0
2016-May-17 14:31N 49°18' W 123°05'0 0.1
2016-May-17 13:28N 49°18' W 123°04'0 0.0
2016-May-17 12:31N 49°18' W 123°04'0 0.1
2016-May-17 11:31N 49°18' W 123°04'0 0.1
2016-May-17 10:32N 49°18' W 123°04'0 0.4
2016-May-17 09:32N 49°18' W 123°04'0 0.0
2016-May-17 08:33N 49°18' W 123°04'0 0.0
2016-May-17 07:33N 49°18' W 123°04'0 0.0
2016-May-17 06:33N 49°18' W 123°04'0 0.0
2016-May-17 05:33N 49°18' W 123°04'0 0.0
2016-May-17 04:33N 49°18' W 123°04'0 0.0
2016-May-17 03:33N 49°18' W 123°04'0 0.0
2016-May-17 02:30N 49°18' W 123°04'0 0.0
2016-May-17 01:33N 49°18' W 123°04'0 0.0
2016-May-17 00:33N 49°18' W 123°04'0 0.0
2016-May-16 23:33N 49°18' W 123°04'0 0.0
2016-May-16 22:33N 49°18' W 123°04'0 0.0
2016-May-16 21:33N 49°18' W 123°04'0 0.0
2016-May-16 20:33N 49°18' W 123°04'0 0.0
2016-May-16 19:33N 49°18' W 123°04'0 0.0
2016-May-16 18:33N 49°18' W 123°04'0 0.0
2016-May-16 17:33N 49°18' W 123°04'0 0.0
2016-May-16 16:33N 49°18' W 123°04'0 0.0
2016-May-16 15:33N 49°18' W 123°04'0 0.0
2016-May-16 14:33N 49°18' W 123°04'0 0.0
2016-May-16 13:33N 49°18' W 123°04'0 0.0
2016-May-16 12:33N 49°18' W 123°04'0 0.0
2016-May-16 11:33N 49°18' W 123°04'0 0.0
2016-May-16 10:33N 49°18' W 123°04'0 0.0
2016-May-16 09:33N 49°18' W 123°04'0 0.0
2016-May-16 08:33N 49°18' W 123°04'0 0.0
2016-May-16 07:33N 49°18' W 123°04'0 0.0
2016-May-16 06:33N 49°18' W 123°04'0 0.0
2016-May-16 05:33N 49°18' W 123°04'0 0.0
2016-May-16 04:33N 49°18' W 123°04'0 0.0
2016-May-16 03:33N 49°18' W 123°04'0 0.0
2016-May-16 02:33N 49°18' W 123°04'0 0.0
2016-May-16 01:33N 49°18' W 123°04'0 0.0
2016-May-16 00:33N 49°18' W 123°04'0 0.0
2016-May-15 23:33N 49°18' W 123°04'0 0.0
2016-May-15 22:33N 49°18' W 123°04'0 0.0
2016-May-15 21:33N 49°18' W 123°04'0 0.0
2016-May-15 20:33N 49°18' W 123°04'0 0.0
2016-May-15 19:33N 49°18' W 123°04'0 0.0
2016-May-15 18:33N 49°18' W 123°04'0 0.0
2016-May-15 17:33N 49°18' W 123°04'0 0.0
2016-May-15 16:33N 49°18' W 123°04'0 0.0
2016-May-15 15:33N 49°18' W 123°04'0 0.0
2016-May-15 14:33N 49°18' W 123°04'0 0.0
2016-May-15 13:33N 49°18' W 123°04'0 0.4
2016-May-15 12:33N 49°18' W 123°05'6 5.5
2016-May-15 11:31N 49°18' W 123°13'0 0.0
2016-May-15 10:25N 49°18' W 123°13'0 0.1
2016-May-15 09:31N 49°18' W 123°13'0 0.0
2016-May-15 08:31N 49°18' W 123°13'0 0.1
2016-May-15 07:31N 49°18' W 123°13'0 0.1
2016-May-15 06:31N 49°18' W 123°13'0 0.0
2016-May-15 05:31N 49°18' W 123°13'0 0.0
2016-May-15 04:31N 49°18' W 123°13'0 0.0
2016-May-15 03:31N 49°18' W 123°13'0 0.0
2016-May-15 02:31N 49°18' W 123°13'0 0.0
2016-May-15 01:31N 49°18' W 123°13'0 0.0
2016-May-15 00:31N 49°18' W 123°13'0 0.1
2016-May-14 23:31N 49°18' W 123°13'0 0.2
2016-May-14 22:31N 49°18' W 123°13'0 0.1
2016-May-14 21:31N 49°18' W 123°13'0 0.1
2016-May-14 20:31N 49°18' W 123°13'0 0.0
2016-May-14 19:31N 49°18' W 123°13'0 0.0
2016-May-14 18:31N 49°18' W 123°13'0 0.0
2016-May-14 17:31N 49°18' W 123°13'0 0.0
2016-May-14 16:31N 49°18' W 123°13'0 0.0
2016-May-14 15:31N 49°18' W 123°13'0 0.0
2016-May-14 14:31N 49°18' W 123°13'0 0.1
2016-May-14 13:31N 49°18' W 123°13'0 0.1
2016-May-14 12:31N 49°18' W 123°13'0 0.1
2016-May-14 11:31N 49°18' W 123°13'0 0.0
2016-May-14 10:31N 49°18' W 123°13'0 0.0
2016-May-14 09:31N 49°18' W 123°13'0 0.0
2016-May-14 08:31N 49°18' W 123°13'0 0.0
2016-May-14 07:31N 49°18' W 123°13'0 0.0
2016-May-14 06:31N 49°18' W 123°13'0 0.0
2016-May-14 05:31N 49°18' W 123°13'0 0.0
2016-May-14 04:31N 49°18' W 123°13'0 0.0
2016-May-14 03:31N 49°18' W 123°13'0 0.1
2016-May-14 02:31N 49°18' W 123°13'0 0.0
2016-May-14 01:31N 49°18' W 123°13'0 0.1
2016-May-14 00:31N 49°18' W 123°13'0 0.0
2016-May-13 23:31N 49°18' W 123°13'0 0.0
2016-May-13 22:31N 49°18' W 123°13'0 0.0
2016-May-13 21:31N 49°18' W 123°13'0 0.1
2016-May-13 20:31N 49°18' W 123°13'0 0.0
2016-May-13 19:31N 49°18' W 123°13'0 0.1
2016-May-13 18:33N 49°18' W 123°13'0 0.1
2016-May-13 17:33N 49°18' W 123°13'0 0.1
2016-May-13 16:33N 49°18' W 123°13'0 0.0
2016-May-13 15:33N 49°18' W 123°13'0 0.0
2016-May-13 14:33N 49°18' W 123°13'0 0.0
2016-May-13 13:33N 49°18' W 123°13'0 0.0
2016-May-13 12:33N 49°18' W 123°13'0 0.0
2016-May-13 11:33N 49°18' W 123°13'0 0.1
2016-May-13 10:33N 49°18' W 123°13'0 0.0
2016-May-13 09:33N 49°18' W 123°13'0 0.0
2016-May-13 08:33N 49°18' W 123°13'0 0.0
2016-May-13 07:33N 49°18' W 123°13'0 0.0
2016-May-13 06:33N 49°18' W 123°13'0 0.1
2016-May-13 05:33N 49°18' W 123°13'0 0.1
2016-May-13 04:28N 49°18' W 123°13'0 0.1
2016-May-13 03:31N 49°18' W 123°13'0 0.1
2016-May-13 02:31N 49°18' W 123°13'0 0.0
2016-May-13 01:31N 49°18' W 123°13'0 0.0
2016-May-13 00:31N 49°18' W 123°13'0 0.0
2016-May-12 23:31N 49°18' W 123°13'0 0.0
2016-May-12 22:31N 49°18' W 123°13'0 0.1
2016-May-12 21:31N 49°18' W 123°13'0 0.1
2016-May-12 20:31N 49°18' W 123°13'0 0.0
2016-May-12 19:31N 49°18' W 123°13'0 0.0
2016-May-12 18:31N 49°18' W 123°13'0 0.0
2016-May-12 17:31N 49°18' W 123°13'0 0.1
2016-May-12 16:31N 49°18' W 123°13'0 0.2
2016-May-12 15:33N 49°18' W 123°14'6 5.9
2016-May-12 14:33N 49°13' W 123°19'1111.3
2016-May-12 13:33N 49°02' W 123°17'1312.7
2016-May-12 12:34N 48°53' W 123°03'9 9.3
2016-May-12 11:33N 48°44' W 123°08'9 9.4
2016-May-12 10:33N 48°35' W 123°13'1110.8
2016-May-12 09:33N 48°24' W 123°12'9 9.5
2016-May-12 08:33N 48°20' W 123°24'9 9.2
2016-May-12 07:33N 48°13' W 123°34'1411.2
2016-May-12 06:18N 48°14' W 123°55'5513.0
2016-May-12 02:04N 48°29' W 125°15'713.5
2016-May-12 01:33N 48°29' W 125°25'1313.4
2016-May-12 00:33N 48°29' W 125°45'1313.4
2016-May-11 23:33N 48°29' W 126°06'1313.3
2016-May-11 22:33N 48°28' W 126°26'2813.1
2016-May-11 20:23N 48°29' W 127°09'1213.3
2016-May-11 19:29N 48°29' W 127°27'15313.4
2016-May-11 08:06N 48°29' W 131°18'1 0.8
2016-May-11 07:14N 48°29' W 131°17'  
Track history (hours):
 
Tides and Currents Weather Stations Pressure Air Temp Water Temp Dewpoint Dewpoint Depression Visibility Wind Speed Wind Dir Waves Ship Positions

Three Stars

Last reported at 2016-May-20 01:29 UTC. Time now 2016-May-25 16:58 UTC.
Position N 48°31' W 126°44'.

Length 225 m; draft 12.4 m.

Type: Cargo ship. MMSI: 372950000.

Date/timePositionNaut miles runAvg speedWind from/ knotsBaromVisibWave heightAir tempDewpointWater temp
2016-May-20 01:29N 48°31' W 126°44'9 9.3
2016-May-20 00:29N 48°31' W 126°30'9 9.7
2016-May-19 23:33N 48°31' W 126°17'9 9.4
2016-May-19 22:33N 48°31' W 126°03'9 8.9
2016-May-19 21:33N 48°31' W 125°49'10 9.8
2016-May-19 20:33N 48°31' W 125°34'10 9.9
2016-May-19 19:33N 48°31' W 125°19'6811.2
2016-May-19 13:30N 48°16' W 123°40'1010.7
2016-May-19 12:33N 48°21' W 123°26'10 9.5
2016-May-19 11:33N 48°24' W 123°13'1212.4
2016-May-19 10:33N 48°37' W 123°14'10 9.7
2016-May-19 09:33N 48°45' W 123°06'8 7.7
2016-May-19 08:33N 48°53' W 123°07'1212.2
2016-May-19 07:33N 49°01' W 123°21'1110.9
2016-May-19 06:33N 49°12' W 123°22'9 9.3
2016-May-19 05:33N 49°19' W 123°13'5 5.3
2016-May-19 04:31N 49°18' W 123°05'0 0.0
2016-May-19 03:31N 49°18' W 123°05'0 0.1
2016-May-19 02:31N 49°18' W 123°04'0 0.1
2016-May-19 01:31N 49°18' W 123°04'0 0.2
2016-May-19 00:31N 49°18' W 123°04'0 0.1
2016-May-18 23:31N 49°18' W 123°04'0 0.0
2016-May-18 22:31N 49°18' W 123°04'0 0.0
2016-May-18 21:31N 49°18' W 123°04'0 0.1
2016-May-18 20:31N 49°18' W 123°04'0 0.2
2016-May-18 19:31N 49°18' W 123°04'0 0.1
2016-May-18 18:31N 49°18' W 123°05'0 0.0
2016-May-18 17:31N 49°18' W 123°05'0 0.0
2016-May-18 16:31N 49°18' W 123°05'0 0.0
2016-May-18 15:31N 49°18' W 123°05'0 0.0
2016-May-18 14:31N 49°18' W 123°05'0 0.0
2016-May-18 13:31N 49°18' W 123°05'0 0.1
2016-May-18 12:31N 49°18' W 123°04'0 0.2
2016-May-18 11:31N 49°18' W 123°04'0 0.0
2016-May-18 10:31N 49°18' W 123°04'0 0.0
2016-May-18 09:31N 49°18' W 123°04'0 0.0
2016-May-18 08:31N 49°18' W 123°04'0 0.1
2016-May-18 07:31N 49°18' W 123°04'0 0.2
2016-May-18 06:31N 49°18' W 123°05'0 0.0
2016-May-18 05:31N 49°18' W 123°05'0 0.0
2016-May-18 04:31N 49°18' W 123°05'0 0.0
2016-May-18 03:31N 49°18' W 123°05'0 0.0
2016-May-18 02:31N 49°18' W 123°05'0 0.1
2016-May-18 01:31N 49°18' W 123°04'0 0.1
2016-May-18 00:31N 49°18' W 123°04'0 0.3
2016-May-17 23:31N 49°18' W 123°04'0 0.0
2016-May-17 22:31N 49°18' W 123°04'0 0.0
2016-May-17 21:31N 49°18' W 123°04'0 0.0
2016-May-17 20:31N 49°18' W 123°04'0 0.2
2016-May-17 19:31N 49°18' W 123°04'0 0.1
2016-May-17 18:31N 49°18' W 123°05'0 0.0
2016-May-17 17:31N 49°18' W 123°05'0 0.0
2016-May-17 16:31N 49°18' W 123°05'0 0.0
2016-May-17 15:31N 49°18' W 123°05'0 0.0
2016-May-17 14:31N 49°18' W 123°05'0 0.1
2016-May-17 13:28N 49°18' W 123°04'0 0.0
2016-May-17 12:31N 49°18' W 123°04'0 0.1
2016-May-17 11:31N 49°18' W 123°04'0 0.1
2016-May-17 10:32N 49°18' W 123°04'0 0.4
2016-May-17 09:32N 49°18' W 123°04'0 0.0
2016-May-17 08:33N 49°18' W 123°04'0 0.0
2016-May-17 07:33N 49°18' W 123°04'0 0.0
2016-May-17 06:33N 49°18' W 123°04'0 0.0
2016-May-17 05:33N 49°18' W 123°04'0 0.0
2016-May-17 04:33N 49°18' W 123°04'0 0.0
2016-May-17 03:33N 49°18' W 123°04'0 0.0
2016-May-17 02:30N 49°18' W 123°04'0 0.0
2016-May-17 01:33N 49°18' W 123°04'0 0.0
2016-May-17 00:33N 49°18' W 123°04'0 0.0
2016-May-16 23:33N 49°18' W 123°04'0 0.0
2016-May-16 22:33N 49°18' W 123°04'0 0.0
2016-May-16 21:33N 49°18' W 123°04'0 0.0
2016-May-16 20:33N 49°18' W 123°04'0 0.0
2016-May-16 19:33N 49°18' W 123°04'0 0.0
2016-May-16 18:33N 49°18' W 123°04'0 0.0
2016-May-16 17:33N 49°18' W 123°04'0 0.0
2016-May-16 16:33N 49°18' W 123°04'0 0.0
2016-May-16 15:33N 49°18' W 123°04'0 0.0
2016-May-16 14:33N 49°18' W 123°04'0 0.0
2016-May-16 13:33N 49°18' W 123°04'0 0.0
2016-May-16 12:33N 49°18' W 123°04'0 0.0
2016-May-16 11:33N 49°18' W 123°04'0 0.0
2016-May-16 10:33N 49°18' W 123°04'0 0.0
2016-May-16 09:33N 49°18' W 123°04'0 0.0
2016-May-16 08:33N 49°18' W 123°04'0 0.0
2016-May-16 07:33N 49°18' W 123°04'0 0.0
2016-May-16 06:33N 49°18' W 123°04'0 0.0
2016-May-16 05:33N 49°18' W 123°04'0 0.0
2016-May-16 04:33N 49°18' W 123°04'0 0.0
2016-May-16 03:33N 49°18' W 123°04'0 0.0
2016-May-16 02:33N 49°18' W 123°04'0 0.0
2016-May-16 01:33N 49°18' W 123°04'0 0.0
2016-May-16 00:33N 49°18' W 123°04'0 0.0
2016-May-15 23:33N 49°18' W 123°04'0 0.0
2016-May-15 22:33N 49°18' W 123°04'0 0.0
2016-May-15 21:33N 49°18' W 123°04'0 0.0
2016-May-15 20:33N 49°18' W 123°04'0 0.0
2016-May-15 19:33N 49°18' W 123°04'0 0.0
2016-May-15 18:33N 49°18' W 123°04'0 0.0
2016-May-15 17:33N 49°18' W 123°04'0 0.0
2016-May-15 16:33N 49°18' W 123°04'0 0.0
2016-May-15 15:33N 49°18' W 123°04'0 0.0
2016-May-15 14:33N 49°18' W 123°04'0 0.0
2016-May-15 13:33N 49°18' W 123°04'0 0.4
2016-May-15 12:33N 49°18' W 123°05'6 5.5
2016-May-15 11:31N 49°18' W 123°13'0 0.0
2016-May-15 10:25N 49°18' W 123°13'0 0.1
2016-May-15 09:31N 49°18' W 123°13'0 0.0
2016-May-15 08:31N 49°18' W 123°13'0 0.1
2016-May-15 07:31N 49°18' W 123°13'0 0.1
2016-May-15 06:31N 49°18' W 123°13'0 0.0
2016-May-15 05:31N 49°18' W 123°13'0 0.0
2016-May-15 04:31N 49°18' W 123°13'0 0.0
2016-May-15 03:31N 49°18' W 123°13'0 0.0
2016-May-15 02:31N 49°18' W 123°13'0 0.0
2016-May-15 01:31N 49°18' W 123°13'0 0.0
2016-May-15 00:31N 49°18' W 123°13'0 0.1
2016-May-14 23:31N 49°18' W 123°13'0 0.2
2016-May-14 22:31N 49°18' W 123°13'0 0.1
2016-May-14 21:31N 49°18' W 123°13'0 0.1
2016-May-14 20:31N 49°18' W 123°13'0 0.0
2016-May-14 19:31N 49°18' W 123°13'0 0.0
2016-May-14 18:31N 49°18' W 123°13'0 0.0
2016-May-14 17:31N 49°18' W 123°13'0 0.0
2016-May-14 16:31N 49°18' W 123°13'0 0.0
2016-May-14 15:31N 49°18' W 123°13'0 0.0
2016-May-14 14:31N 49°18' W 123°13'0 0.1
2016-May-14 13:31N 49°18' W 123°13'0 0.1
2016-May-14 12:31N 49°18' W 123°13'0 0.1
2016-May-14 11:31N 49°18' W 123°13'0 0.0
2016-May-14 10:31N 49°18' W 123°13'0 0.0
2016-May-14 09:31N 49°18' W 123°13'0 0.0
2016-May-14 08:31N 49°18' W 123°13'0 0.0
2016-May-14 07:31N 49°18' W 123°13'0 0.0
2016-May-14 06:31N 49°18' W 123°13'0 0.0
2016-May-14 05:31N 49°18' W 123°13'0 0.0
2016-May-14 04:31N 49°18' W 123°13'0 0.0
2016-May-14 03:31N 49°18' W 123°13'0 0.1
2016-May-14 02:31N 49°18' W 123°13'0 0.0
2016-May-14 01:31N 49°18' W 123°13'0 0.1
2016-May-14 00:31N 49°18' W 123°13'0 0.0
2016-May-13 23:31N 49°18' W 123°13'0 0.0
2016-May-13 22:31N 49°18' W 123°13'0 0.0
2016-May-13 21:31N 49°18' W 123°13'0 0.1
2016-May-13 20:31N 49°18' W 123°13'0 0.0
2016-May-13 19:31N 49°18' W 123°13'0 0.1
2016-May-13 18:33N 49°18' W 123°13'0 0.1
2016-May-13 17:33N 49°18' W 123°13'0 0.1
2016-May-13 16:33N 49°18' W 123°13'0 0.0
2016-May-13 15:33N 49°18' W 123°13'0 0.0
2016-May-13 14:33N 49°18' W 123°13'0 0.0
2016-May-13 13:33N 49°18' W 123°13'0 0.0
2016-May-13 12:33N 49°18' W 123°13'0 0.0
2016-May-13 11:33N 49°18' W 123°13'0 0.1
2016-May-13 10:33N 49°18' W 123°13'0 0.0
2016-May-13 09:33N 49°18' W 123°13'0 0.0
2016-May-13 08:33N 49°18' W 123°13'0 0.0
2016-May-13 07:33N 49°18' W 123°13'0 0.0
2016-May-13 06:33N 49°18' W 123°13'0 0.1
2016-May-13 05:33N 49°18' W 123°13'0 0.1
2016-May-13 04:28N 49°18' W 123°13'0 0.1
2016-May-13 03:31N 49°18' W 123°13'0 0.1
2016-May-13 02:31N 49°18' W 123°13'0 0.0
2016-May-13 01:31N 49°18' W 123°13'0 0.0
2016-May-13 00:31N 49°18' W 123°13'0 0.0
2016-May-12 23:31N 49°18' W 123°13'0 0.0
2016-May-12 22:31N 49°18' W 123°13'0 0.1
2016-May-12 21:31N 49°18' W 123°13'0 0.1
2016-May-12 20:31N 49°18' W 123°13'0 0.0
2016-May-12 19:31N 49°18' W 123°13'0 0.0
2016-May-12 18:31N 49°18' W 123°13'0 0.0
2016-May-12 17:31N 49°18' W 123°13'0 0.1
2016-May-12 16:31N 49°18' W 123°13'0 0.2
2016-May-12 15:33N 49°18' W 123°14'6 5.9
2016-May-12 14:33N 49°13' W 123°19'1111.3
2016-May-12 13:33N 49°02' W 123°17'1312.7
2016-May-12 12:34N 48°53' W 123°03'9 9.3
2016-May-12 11:33N 48°44' W 123°08'9 9.4
2016-May-12 10:33N 48°35' W 123°13'1110.8
2016-May-12 09:33N 48°24' W 123°12'9 9.5
2016-May-12 08:33N 48°20' W 123°24'9 9.2
2016-May-12 07:33N 48°13' W 123°34'1411.2
2016-May-12 06:18N 48°14' W 123°55'5513.0
2016-May-12 02:04N 48°29' W 125°15'713.5
2016-May-12 01:33N 48°29' W 125°25'1313.4
2016-May-12 00:33N 48°29' W 125°45'1313.4
2016-May-11 23:33N 48°29' W 126°06'1313.3
2016-May-11 22:33N 48°28' W 126°26'2813.1
2016-May-11 20:23N 48°29' W 127°09'1213.3
2016-May-11 19:29N 48°29' W 127°27'15313.4
2016-May-11 08:06N 48°29' W 131°18'1 0.8
2016-May-11 07:14N 48°29' W 131°17'  

Dump ship's entire track history